createdAt,value
2023-05-17T00:01:47.302Z,51.18
2023-05-17T00:04:13.927Z,50.76
2023-05-17T00:06:41.118Z,50.75
2023-05-17T00:09:07.763Z,51.01
2023-05-17T00:11:34.474Z,51.29
2023-05-17T00:14:01.223Z,50.99
2023-05-17T00:16:27.794Z,50.81
2023-05-17T00:18:54.618Z,50.89
2023-05-17T00:21:21.283Z,50.52
2023-05-17T00:23:47.787Z,50.59
2023-05-17T00:26:14.353Z,50.72
2023-05-17T00:28:40.835Z,50.65
2023-05-17T00:31:07.358Z,50.67
2023-05-17T00:33:33.884Z,50.43
2023-05-17T00:36:00.469Z,50.30
2023-05-17T00:38:26.998Z,50.17
2023-05-17T00:40:54.273Z,50.32
2023-05-17T00:43:20.964Z,50.44
2023-05-17T00:45:49.364Z,50.58
2023-05-17T00:48:16.436Z,50.58
2023-05-17T00:50:43.536Z,50.46
2023-05-17T00:53:16.110Z,50.08
2023-05-17T00:55:48.639Z,50.35
2023-05-17T00:58:16.175Z,50.40
2023-05-17T01:00:43.379Z,50.24
2023-05-17T01:03:10.063Z,50.19
2023-05-17T01:05:36.793Z,49.82
2023-05-17T01:08:03.377Z,49.98
2023-05-17T01:10:58.437Z,50.03
2023-05-17T01:13:49.490Z,50.06
2023-05-17T01:16:25.754Z,49.78
2023-05-17T01:18:58.865Z,49.76
2023-05-17T01:21:56.412Z,49.81
2023-05-17T01:24:33.417Z,49.82
2023-05-17T01:27:01.137Z,49.80
2023-05-17T01:29:30.122Z,49.69
2023-05-17T01:31:58.575Z,49.78
2023-05-17T01:34:29.256Z,49.72
2023-05-17T01:36:56.209Z,49.87
2023-05-17T01:39:22.900Z,49.79
2023-05-17T01:42:22.064Z,49.78
2023-05-17T01:45:03.157Z,49.39
2023-05-17T01:47:50.590Z,49.21
2023-05-17T01:50:22.494Z,49.30
2023-05-17T01:52:53.482Z,49.55
2023-05-17T01:55:41.043Z,49.42
2023-05-17T01:58:10.334Z,48.88
2023-05-17T02:00:39.799Z,49.16
2023-05-17T02:03:06.497Z,49.16
2023-05-17T02:05:34.223Z,49.21
2023-05-17T02:08:00.814Z,49.20
2023-05-17T02:10:27.394Z,49.18
2023-05-17T02:12:53.897Z,49.16
2023-05-17T02:15:20.499Z,49.27
2023-05-17T02:17:47.132Z,49.02
2023-05-17T02:20:14.139Z,49.24
2023-05-17T02:22:40.793Z,49.14
2023-05-17T02:25:08.046Z,49.12
2023-05-17T02:27:34.717Z,49.18
2023-05-17T02:30:02.142Z,48.95
2023-05-17T02:32:29.214Z,48.81
2023-05-17T02:34:56.114Z,48.89
2023-05-17T02:37:22.643Z,48.80
2023-05-17T02:39:49.205Z,49.02
2023-05-17T02:42:15.789Z,48.88
2023-05-17T02:44:42.399Z,48.65
2023-05-17T02:47:09.168Z,48.50
2023-05-17T02:49:35.778Z,48.67
2023-05-17T02:52:02.429Z,48.81
2023-05-17T02:54:29.117Z,48.59
2023-05-17T02:56:55.898Z,48.78
2023-05-17T02:59:22.481Z,48.55
2023-05-17T03:01:50.182Z,48.41
2023-05-17T03:04:16.795Z,48.35
2023-05-17T03:06:43.395Z,48.27
2023-05-17T03:09:09.931Z,48.30
2023-05-17T03:11:36.503Z,48.25
2023-05-17T03:14:03.153Z,48.33
2023-05-17T03:16:29.657Z,48.35
2023-05-17T03:18:56.412Z,48.31
2023-05-17T03:21:23.037Z,48.22
2023-05-17T03:23:49.535Z,48.19
2023-05-17T03:26:16.409Z,48.03
2023-05-17T03:28:42.913Z,48.43
2023-05-17T03:31:09.504Z,48.20
2023-05-17T03:33:36.135Z,47.76
2023-05-17T03:36:02.878Z,47.76
2023-05-17T03:38:29.572Z,47.98
2023-05-17T03:40:56.183Z,47.85
2023-05-17T03:43:22.807Z,47.81
2023-05-17T03:45:49.323Z,47.85
2023-05-17T03:48:15.947Z,47.71
2023-05-17T03:50:42.476Z,47.51
2023-05-17T03:53:09.723Z,47.90
2023-05-17T03:55:36.357Z,47.91
2023-05-17T03:58:02.942Z,47.76
2023-05-17T04:00:29.866Z,47.73
2023-05-17T04:02:56.525Z,47.37
2023-05-17T04:05:23.105Z,47.71
2023-05-17T04:07:49.676Z,47.53
2023-05-17T04:10:16.265Z,47.34
2023-05-17T04:12:42.786Z,47.52
2023-05-17T04:15:09.818Z,47.47
2023-05-17T04:17:36.384Z,47.50
2023-05-17T04:20:06.416Z,47.13
2023-05-17T04:22:33.621Z,47.30
2023-05-17T04:25:00.381Z,46.99
2023-05-17T04:27:26.975Z,47.18
2023-05-17T04:29:53.494Z,47.01
2023-05-17T04:32:20.078Z,47.33
2023-05-17T04:34:46.592Z,47.36
2023-05-17T04:37:13.148Z,47.10
2023-05-17T04:39:40.047Z,46.72
2023-05-17T04:42:06.649Z,47.08
2023-05-17T04:44:33.158Z,46.91
2023-05-17T04:46:59.839Z,47.14
2023-05-17T04:49:26.647Z,46.74
2023-05-17T04:51:53.194Z,47.31
2023-05-17T04:54:19.687Z,47.07
2023-05-17T04:56:46.211Z,47.02
2023-05-17T04:59:12.753Z,46.42
2023-05-17T05:01:39.331Z,46.69
2023-05-17T05:04:07.152Z,46.63
2023-05-17T05:06:35.059Z,46.81
2023-05-17T05:09:01.963Z,46.26
2023-05-17T05:11:28.531Z,46.68
2023-05-17T05:13:55.381Z,46.52
2023-05-17T05:16:21.931Z,46.60
2023-05-17T05:18:48.570Z,46.23
2023-05-17T05:21:15.315Z,46.80
2023-05-17T05:23:41.906Z,46.74
2023-05-17T05:26:08.532Z,46.58
2023-05-17T05:28:35.074Z,46.62
2023-05-17T05:31:01.926Z,46.34
2023-05-17T05:33:28.565Z,46.70
2023-05-17T05:35:55.163Z,46.54
2023-05-17T05:38:21.742Z,46.52
2023-05-17T05:40:48.408Z,46.17
2023-05-17T05:43:15.984Z,46.24
2023-05-17T05:45:46.038Z,46.30
2023-05-17T05:48:15.531Z,46.53
2023-05-17T05:50:44.074Z,46.42
2023-05-17T05:53:18.665Z,46.33
2023-05-17T05:55:46.766Z,45.97
2023-05-17T05:58:13.339Z,44.76
2023-05-17T06:00:39.982Z,46.09
2023-05-17T06:03:06.753Z,45.87
2023-05-17T06:05:33.487Z,45.69
2023-05-17T06:08:00.186Z,46.05
2023-05-17T06:10:26.849Z,45.15
2023-05-17T06:12:53.592Z,45.30
2023-05-17T06:15:20.119Z,45.74
2023-05-17T06:17:46.879Z,45.93
2023-05-17T06:20:15.379Z,45.72
2023-05-17T06:22:43.468Z,45.84
2023-05-17T06:25:11.432Z,45.64
2023-05-17T06:27:37.980Z,46.08
2023-05-17T06:30:07.292Z,45.45
2023-05-17T06:32:34.200Z,45.64
2023-05-17T06:35:00.960Z,45.58
2023-05-17T06:37:27.590Z,45.77
2023-05-17T06:40:10.298Z,45.82
2023-05-17T06:42:42.427Z,45.60
2023-05-17T06:45:09.557Z,45.92
2023-05-17T06:47:36.134Z,45.95
2023-05-17T06:50:02.795Z,45.75
2023-05-17T06:52:29.310Z,45.67
2023-05-17T06:54:55.875Z,45.84
2023-05-17T06:57:22.738Z,45.67
2023-05-17T06:59:49.249Z,45.79
2023-05-17T07:02:15.968Z,46.11
2023-05-17T07:04:42.593Z,45.62
2023-05-17T07:07:10.183Z,45.53
2023-05-17T07:09:36.713Z,45.79
2023-05-17T07:12:04.676Z,45.85
2023-05-17T07:14:31.259Z,45.58
2023-05-17T07:16:57.855Z,45.65
2023-05-17T07:19:26.461Z,45.71
2023-05-17T07:21:53.134Z,45.83
2023-05-17T07:24:19.619Z,45.83
2023-05-17T07:26:46.190Z,45.89
2023-05-17T07:29:12.991Z,45.68
2023-05-17T07:31:39.520Z,45.92
2023-05-17T07:34:06.145Z,46.06
2023-05-17T07:36:32.762Z,45.88
2023-05-17T07:38:59.464Z,45.63
2023-05-17T07:41:27.152Z,45.75
2023-05-17T07:43:53.697Z,45.78
2023-05-17T07:46:20.371Z,45.55
2023-05-17T07:48:46.984Z,45.61
2023-05-17T07:51:15.879Z,45.62
2023-05-17T07:53:42.439Z,45.30
2023-05-17T07:56:08.951Z,45.19
2023-05-17T07:58:36.307Z,45.24
2023-05-17T08:01:02.903Z,45.20
2023-05-17T08:03:29.577Z,44.94
2023-05-17T08:05:56.233Z,45.03
2023-05-17T08:08:22.881Z,45.00
2023-05-17T08:10:49.777Z,44.92
2023-05-17T08:13:16.463Z,45.04
2023-05-17T08:15:43.229Z,44.54
2023-05-17T08:18:10.140Z,44.98
2023-05-17T08:20:36.765Z,44.83
2023-05-17T08:23:03.331Z,45.07
2023-05-17T08:25:30.158Z,44.76
2023-05-17T08:27:56.938Z,44.73
2023-05-17T08:30:28.808Z,44.85
2023-05-17T08:32:56.857Z,44.77
2023-05-17T08:35:25.483Z,44.74
2023-05-17T08:37:53.810Z,44.60
2023-05-17T08:40:23.848Z,44.75
2023-05-17T08:42:53.787Z,44.74
2023-05-17T08:45:22.158Z,44.80
2023-05-17T08:47:49.160Z,44.90
2023-05-17T08:50:15.776Z,44.47
2023-05-17T08:52:45.998Z,44.31
2023-05-17T08:55:16.351Z,44.51
2023-05-17T08:57:43.631Z,44.53
2023-05-17T09:00:15.885Z,44.50
2023-05-17T09:02:43.003Z,44.61
2023-05-17T09:05:11.058Z,44.42
2023-05-17T09:07:37.964Z,44.37
2023-05-17T09:10:05.997Z,44.60
2023-05-17T09:12:36.737Z,44.36
2023-05-17T09:15:15.067Z,44.16
2023-05-17T09:17:42.889Z,44.20
2023-05-17T09:20:11.017Z,44.40
2023-05-17T09:22:38.434Z,44.25
2023-05-17T09:25:05.425Z,44.20
2023-05-17T09:27:35.071Z,44.17
2023-05-17T09:30:01.592Z,44.18
2023-05-17T09:32:28.596Z,43.90
2023-05-17T09:34:58.065Z,44.18
2023-05-17T09:37:26.196Z,44.22
2023-05-17T09:39:54.959Z,44.26
2023-05-17T09:42:26.390Z,44.16
2023-05-17T09:44:57.531Z,44.20
2023-05-17T09:47:28.533Z,44.32
2023-05-17T09:50:00.685Z,44.55
2023-05-17T09:52:31.767Z,44.57
2023-05-17T09:55:00.372Z,44.42
2023-05-17T09:57:28.582Z,44.26
2023-05-17T09:59:56.799Z,44.44
2023-05-17T10:02:31.012Z,44.65
2023-05-17T10:04:58.570Z,44.33
2023-05-17T10:07:26.751Z,44.57
2023-05-17T10:09:54.684Z,44.37
2023-05-17T10:12:25.875Z,44.47
2023-05-17T10:14:56.028Z,44.56
2023-05-17T10:17:23.842Z,44.40
2023-05-17T10:19:50.463Z,44.28
2023-05-17T10:22:23.149Z,44.13
2023-05-17T10:24:51.738Z,44.20
2023-05-17T10:27:19.052Z,44.08
2023-05-17T10:29:49.943Z,44.15
2023-05-17T10:32:19.402Z,44.40
2023-05-17T10:34:49.564Z,44.37
2023-05-17T10:37:25.246Z,44.16
2023-05-17T10:39:53.120Z,44.04
2023-05-17T10:42:22.179Z,44.05
2023-05-17T10:44:48.851Z,44.19
2023-05-17T10:47:15.659Z,43.96
2023-05-17T10:49:47.859Z,43.98
2023-05-17T10:52:21.190Z,43.86
2023-05-17T10:54:50.052Z,44.13
2023-05-17T10:57:49.335Z,44.24
2023-05-17T11:00:21.458Z,43.98
2023-05-17T11:02:49.055Z,44.07
2023-05-17T11:05:27.216Z,43.99
2023-05-17T11:08:15.829Z,44.07
2023-05-17T11:11:10.531Z,43.93
2023-05-17T11:13:55.325Z,44.08
2023-05-17T11:16:25.446Z,43.96
2023-05-17T11:18:54.044Z,44.17
2023-05-17T11:21:22.735Z,44.07
2023-05-17T11:23:56.647Z,43.78
2023-05-17T11:26:28.502Z,43.94
2023-05-17T11:29:05.373Z,43.92
2023-05-17T11:31:33.508Z,43.93
2023-05-17T11:34:00.973Z,44.16
2023-05-17T11:36:27.514Z,43.90
2023-05-17T11:39:12.215Z,44.15
2023-05-17T11:41:41.622Z,44.22
2023-05-17T11:44:11.675Z,44.09
2023-05-17T11:46:39.136Z,44.26
2023-05-17T11:49:09.621Z,44.03
2023-05-17T11:51:36.952Z,44.60
2023-05-17T11:54:04.297Z,44.34
2023-05-17T11:56:43.733Z,43.97
2023-05-17T11:59:10.932Z,44.11
2023-05-17T12:01:47.751Z,44.13
2023-05-17T12:04:22.603Z,43.91
2023-05-17T12:06:49.276Z,43.96
2023-05-17T12:09:17.697Z,43.81
2023-05-17T12:11:44.704Z,43.95
2023-05-17T12:14:15.456Z,43.93
2023-05-17T12:16:44.622Z,44.02
2023-05-17T12:19:22.201Z,43.78
2023-05-17T12:21:49.717Z,43.94
2023-05-17T12:24:16.684Z,43.64
2023-05-17T12:26:45.192Z,43.66
2023-05-17T12:29:13.698Z,43.81
2023-05-17T12:31:46.603Z,44.09
2023-05-17T12:34:14.294Z,43.87
2023-05-17T12:36:41.168Z,43.78
2023-05-17T12:39:10.002Z,43.16
2023-05-17T12:41:38.635Z,43.81
2023-05-17T12:46:38.854Z,43.82
2023-05-17T12:49:07.387Z,43.82
2023-05-17T12:51:44.768Z,43.78
2023-05-17T12:54:13.085Z,43.41
2023-05-17T12:56:44.000Z,43.64
2023-05-17T12:59:10.506Z,43.78
2023-05-17T13:01:38.896Z,43.68
2023-05-17T13:04:06.279Z,43.54
2023-05-17T13:06:49.805Z,43.51
2023-05-17T13:09:24.238Z,43.21
2023-05-17T13:11:52.777Z,43.31
2023-05-17T13:14:44.446Z,43.59
2023-05-17T13:17:36.702Z,43.43
2023-05-17T13:20:05.351Z,43.28
2023-05-17T13:22:33.152Z,42.66
2023-05-17T13:24:59.756Z,42.87
2023-05-17T13:27:26.301Z,43.23
2023-05-17T13:29:52.810Z,42.97
2023-05-17T13:32:19.650Z,43.08
2023-05-17T13:34:46.169Z,43.03
2023-05-17T13:37:13.113Z,42.88
2023-05-17T13:39:41.142Z,42.87
2023-05-17T13:42:08.033Z,42.82
2023-05-17T13:44:34.574Z,42.63
2023-05-17T13:47:01.192Z,42.89
2023-05-17T13:49:28.688Z,42.66
2023-05-17T13:51:55.337Z,43.10
2023-05-17T13:54:24.564Z,43.05
2023-05-17T13:56:51.185Z,43.06
2023-05-17T13:59:17.735Z,43.38
2023-05-17T14:01:45.110Z,43.18
2023-05-17T14:04:11.859Z,43.08
2023-05-17T14:06:39.125Z,43.23
2023-05-17T14:09:06.401Z,42.99
2023-05-17T14:11:33.528Z,42.99
2023-05-17T14:14:01.278Z,42.89
2023-05-17T14:16:28.043Z,42.82
2023-05-17T14:18:54.681Z,43.01
2023-05-17T14:21:21.411Z,43.28
2023-05-17T14:23:47.923Z,43.07
2023-05-17T14:26:14.463Z,43.13
2023-05-17T14:28:41.015Z,43.27
2023-05-17T14:31:08.727Z,42.96
2023-05-17T14:33:36.135Z,42.73
2023-05-17T14:36:04.094Z,42.88
2023-05-17T14:38:31.075Z,42.74
2023-05-17T14:41:00.570Z,42.75
2023-05-17T14:43:27.385Z,42.60
2023-05-17T14:45:53.979Z,42.61
2023-05-17T14:48:20.616Z,42.63
2023-05-17T14:50:47.200Z,42.45
2023-05-17T14:53:13.715Z,42.78
2023-05-17T14:55:40.412Z,42.72
2023-05-17T14:58:06.972Z,42.54
2023-05-17T15:00:34.724Z,42.99
2023-05-17T15:03:01.650Z,42.74
2023-05-17T15:05:28.853Z,43.22
2023-05-17T15:07:55.750Z,43.08
2023-05-17T15:10:22.952Z,43.16
2023-05-17T15:12:49.855Z,43.30
2023-05-17T15:15:16.670Z,43.03
2023-05-17T15:17:43.259Z,42.85
2023-05-17T15:20:10.749Z,42.69
2023-05-17T15:22:37.723Z,42.66
2023-05-17T15:25:05.602Z,42.84
2023-05-17T15:27:32.144Z,43.02
2023-05-17T15:29:58.842Z,42.48
2023-05-17T15:32:26.505Z,42.47
2023-05-17T15:34:53.105Z,42.51
2023-05-17T15:37:19.634Z,42.68
2023-05-17T15:39:46.498Z,42.47
2023-05-17T15:42:13.016Z,42.53
2023-05-17T15:44:39.530Z,42.61
2023-05-17T15:47:06.066Z,42.64
2023-05-17T15:49:33.426Z,42.42
2023-05-17T15:52:00.104Z,42.49
2023-05-17T15:54:26.616Z,42.46
2023-05-17T15:56:53.140Z,42.47
2023-05-17T15:59:19.677Z,42.37
2023-05-17T16:01:46.403Z,42.17
2023-05-17T16:04:13.689Z,42.32
2023-05-17T16:06:40.633Z,42.12
2023-05-17T16:09:07.395Z,42.14
2023-05-17T16:11:33.989Z,42.68
2023-05-17T16:14:00.550Z,42.29
2023-05-17T16:16:27.189Z,42.43
2023-05-17T16:18:54.158Z,42.15
2023-05-17T16:21:20.828Z,42.25
2023-05-17T16:23:47.638Z,42.53
2023-05-17T16:26:14.621Z,42.50
2023-05-17T16:28:41.241Z,42.50
2023-05-17T16:31:07.951Z,42.36
2023-05-17T16:33:34.760Z,42.59
2023-05-17T16:36:02.265Z,42.17
2023-05-17T16:38:28.824Z,42.09
2023-05-17T16:40:56.371Z,42.32
2023-05-17T16:43:22.935Z,42.05
2023-05-17T16:45:52.231Z,42.38
2023-05-17T16:48:18.915Z,42.61
2023-05-17T16:50:45.951Z,42.57
2023-05-17T16:53:12.672Z,42.22
2023-05-17T16:55:39.255Z,42.52
2023-05-17T16:58:06.060Z,42.37
2023-05-17T17:00:32.759Z,42.50
2023-05-17T17:02:59.797Z,42.66
2023-05-17T17:05:27.437Z,42.74
2023-05-17T17:07:54.301Z,42.81
2023-05-17T17:10:21.144Z,42.57
2023-05-17T17:12:48.099Z,42.76
2023-05-17T17:15:15.571Z,42.97
2023-05-17T17:17:42.712Z,42.74
2023-05-17T17:20:09.852Z,43.04
2023-05-17T17:22:36.386Z,42.75
2023-05-17T17:25:03.058Z,42.84
2023-05-17T17:27:29.625Z,42.92
2023-05-17T17:29:56.202Z,43.03
2023-05-17T17:32:22.745Z,43.04
2023-05-17T17:34:49.394Z,43.33
2023-05-17T17:37:15.949Z,42.99
2023-05-17T17:39:42.613Z,43.06
2023-05-17T17:42:10.582Z,43.05
2023-05-17T17:44:37.316Z,43.00
2023-05-17T17:47:04.026Z,43.27
2023-05-17T17:49:30.779Z,43.20
2023-05-17T17:51:58.255Z,43.31
2023-05-17T17:54:24.916Z,43.42
2023-05-17T17:56:51.411Z,43.29
2023-05-17T17:59:17.964Z,43.66
2023-05-17T18:01:44.725Z,43.31
2023-05-17T18:04:13.555Z,43.50
2023-05-17T18:06:41.853Z,43.54
2023-05-17T18:09:08.732Z,43.42
2023-05-17T18:11:35.360Z,43.58
2023-05-17T18:14:02.606Z,43.47
2023-05-17T18:16:29.409Z,43.52
2023-05-17T18:18:56.363Z,43.59
2023-05-17T18:21:23.400Z,43.41
2023-05-17T18:23:50.024Z,43.71
2023-05-17T18:26:16.543Z,43.78
2023-05-17T18:28:43.319Z,43.57
2023-05-17T18:31:10.605Z,43.78
2023-05-17T18:33:37.192Z,43.75
2023-05-17T18:36:03.954Z,43.64
2023-05-17T18:38:30.557Z,43.58
2023-05-17T18:40:57.129Z,43.98
2023-05-17T18:43:23.628Z,43.66
2023-05-17T18:45:51.304Z,43.74
2023-05-17T18:48:18.773Z,43.75
2023-05-17T18:50:45.381Z,43.91
2023-05-17T18:53:12.945Z,44.06
2023-05-17T18:55:39.685Z,43.72
2023-05-17T18:58:06.274Z,43.67
2023-05-17T19:00:33.681Z,43.79
2023-05-17T19:03:00.448Z,43.48
2023-05-17T19:05:26.988Z,44.00
2023-05-17T19:07:53.489Z,44.04
2023-05-17T19:10:20.765Z,43.81
2023-05-17T19:12:47.541Z,43.96
2023-05-17T19:15:14.231Z,43.47
2023-05-17T19:17:40.866Z,43.64
2023-05-17T19:20:08.374Z,43.76
2023-05-17T19:22:35.834Z,43.82
2023-05-17T19:25:02.588Z,43.83
2023-05-17T19:27:29.416Z,43.63
2023-05-17T19:29:56.144Z,43.46
2023-05-17T19:32:22.911Z,43.72
2023-05-17T19:34:49.907Z,43.61
2023-05-17T19:37:16.760Z,43.62
2023-05-17T19:39:43.296Z,43.93
2023-05-17T19:42:09.839Z,43.66
2023-05-17T19:44:36.366Z,43.75
2023-05-17T19:47:02.909Z,43.88
2023-05-17T19:49:29.601Z,43.76
2023-05-17T19:52:00.563Z,43.92
2023-05-17T19:54:30.472Z,43.74
2023-05-17T19:56:57.612Z,43.94
2023-05-17T19:59:24.172Z,43.69
2023-05-17T20:01:50.821Z,43.64
2023-05-17T20:04:17.518Z,43.83
2023-05-17T20:06:44.214Z,43.98
2023-05-17T20:09:10.719Z,43.86
2023-05-17T20:11:37.354Z,43.94
2023-05-17T20:14:03.987Z,43.96
2023-05-17T20:16:31.106Z,43.95
2023-05-17T20:19:01.086Z,44.04
2023-05-17T20:21:29.360Z,43.95
2023-05-17T20:24:03.617Z,44.13
2023-05-17T20:26:37.102Z,43.72
2023-05-17T20:29:07.381Z,44.16
2023-05-17T20:31:35.908Z,44.05
2023-05-17T20:34:03.730Z,44.23
2023-05-17T20:36:31.294Z,44.04
2023-05-17T20:38:57.850Z,44.15
2023-05-17T20:41:24.387Z,44.28
2023-05-17T20:43:53.512Z,44.10
2023-05-17T20:46:20.164Z,44.16
2023-05-17T20:48:48.136Z,44.18
2023-05-17T20:51:15.574Z,44.07
2023-05-17T20:53:42.189Z,43.99
2023-05-17T20:56:09.163Z,44.52
2023-05-17T20:58:35.872Z,44.25
2023-05-17T21:01:02.531Z,44.07
2023-05-17T21:03:33.290Z,44.43
2023-05-17T21:06:01.634Z,44.13
2023-05-17T21:08:28.408Z,44.28
2023-05-17T21:10:55.752Z,44.34
2023-05-17T21:13:23.932Z,44.39
2023-05-17T21:15:50.703Z,44.31
2023-05-17T21:18:17.432Z,44.38
2023-05-17T21:20:43.952Z,44.59
2023-05-17T21:23:10.485Z,44.53
2023-05-17T21:25:37.859Z,44.44
2023-05-17T21:28:05.821Z,44.51
2023-05-17T21:30:32.506Z,44.53
2023-05-17T21:32:59.198Z,44.43
2023-05-17T21:35:25.953Z,44.39
2023-05-17T21:37:52.595Z,44.46
2023-05-17T21:40:19.217Z,44.32
2023-05-17T21:42:46.138Z,44.72
2023-05-17T21:45:14.651Z,44.54
2023-05-17T21:47:41.393Z,44.70
2023-05-17T21:50:08.311Z,44.52
2023-05-17T21:52:34.853Z,44.67
2023-05-17T21:55:01.395Z,44.62
2023-05-17T21:57:28.013Z,44.47
2023-05-17T21:59:54.507Z,44.71
2023-05-17T22:02:21.157Z,44.51
2023-05-17T22:04:47.749Z,44.69
2023-05-17T22:07:14.400Z,44.89
2023-05-17T22:09:40.932Z,44.57
2023-05-17T22:12:09.300Z,44.82
2023-05-17T22:14:36.548Z,44.83
2023-05-17T22:17:08.380Z,44.92
2023-05-17T22:19:40.355Z,44.56
2023-05-17T22:22:08.118Z,44.86
2023-05-17T22:24:34.665Z,44.66
2023-05-17T22:27:01.575Z,44.80
2023-05-17T22:29:28.109Z,44.69
2023-05-17T22:31:54.845Z,44.65
2023-05-17T22:34:21.920Z,44.52
2023-05-17T22:36:48.858Z,44.73
2023-05-17T22:39:15.400Z,44.69
2023-05-17T22:41:41.938Z,44.83
2023-05-17T22:44:08.529Z,44.91
2023-05-17T22:46:35.178Z,45.09
2023-05-17T22:49:01.716Z,45.16
2023-05-17T22:51:29.989Z,45.18
2023-05-17T22:53:56.936Z,44.89
2023-05-17T22:56:23.470Z,45.15
2023-05-17T22:58:50.033Z,45.19
2023-05-17T23:01:16.606Z,45.11
2023-05-17T23:03:43.203Z,45.31
2023-05-17T23:06:10.202Z,45.27
2023-05-17T23:08:36.720Z,44.97
2023-05-17T23:11:05.360Z,45.37
2023-05-17T23:13:31.918Z,45.43
2023-05-17T23:15:58.708Z,45.30
2023-05-17T23:18:27.550Z,45.31
2023-05-17T23:20:54.151Z,45.15
2023-05-17T23:23:23.074Z,45.15
2023-05-17T23:25:50.712Z,45.46
2023-05-17T23:28:18.612Z,45.27
2023-05-17T23:30:48.874Z,45.31
2023-05-17T23:33:16.287Z,45.37
2023-05-17T23:35:42.814Z,45.40
2023-05-17T23:38:09.430Z,45.35
2023-05-17T23:40:37.057Z,45.24
2023-05-17T23:43:04.469Z,45.01
2023-05-17T23:45:31.259Z,45.46
2023-05-17T23:48:01.050Z,45.21
2023-05-17T23:50:27.808Z,45.31
2023-05-17T23:52:54.381Z,45.33
2023-05-17T23:55:22.478Z,45.25
2023-05-17T23:57:49.321Z,45.42
